sensor_id;sensor_type;location;lat;lon;timestamp;pressure;altitude;pressure_sealevel;temperature;humidity
70555;BME280;58104;52.744;15.242;2023-03-26T00:02:00;99373.42;;;19.56;41.14
70555;BME280;58104;52.744;15.242;2023-03-26T00:04:26;99374.71;;;19.58;40.89
70555;BME280;58104;52.744;15.242;2023-03-26T00:06:51;99378.52;;;19.60;41.00
70555;BME280;58104;52.744;15.242;2023-03-26T00:09:17;99370.94;;;19.59;40.91
70555;BME280;58104;52.744;15.242;2023-03-26T00:11:43;99370.37;;;19.66;40.73
70555;BME280;58104;52.744;15.242;2023-03-26T00:14:08;99367.63;;;19.46;41.07
70555;BME280;58104;52.744;15.242;2023-03-26T00:16:33;99371.39;;;19.40;41.15
70555;BME280;58104;52.744;15.242;2023-03-26T00:18:59;99368.47;;;19.39;41.12
70555;BME280;58104;52.744;15.242;2023-03-26T00:21:25;99371.72;;;19.51;41.14
70555;BME280;58104;52.744;15.242;2023-03-26T00:23:49;99368.90;;;19.51;41.19
70555;BME280;58104;52.744;15.242;2023-03-26T00:26:15;99372.61;;;19.58;40.97
70555;BME280;58104;52.744;15.242;2023-03-26T00:28:41;99372.14;;;19.63;40.84
70555;BME280;58104;52.744;15.242;2023-03-26T00:31:07;99379.52;;;19.64;40.85
70555;BME280;58104;52.744;15.242;2023-03-26T00:33:31;99367.35;;;19.65;40.79
70555;BME280;58104;52.744;15.242;2023-03-26T00:35:58;99364.53;;;19.57;40.90
70555;BME280;58104;52.744;15.242;2023-03-26T00:38:22;99366.49;;;19.71;40.55
70555;BME280;58104;52.744;15.242;2023-03-26T00:40:47;99368.74;;;19.82;40.54
70555;BME280;58104;52.744;15.242;2023-03-26T00:43:12;99364.08;;;19.87;40.42
70555;BME280;58104;52.744;15.242;2023-03-26T00:45:38;99363.84;;;19.82;40.46
70555;BME280;58104;52.744;15.242;2023-03-26T00:48:03;99375.18;;;19.76;40.68
70555;BME280;58104;52.744;15.242;2023-03-26T00:50:29;99363.61;;;19.89;40.48
70555;BME280;58104;52.744;15.242;2023-03-26T00:52:54;99369.94;;;19.97;40.26
70555;BME280;58104;52.744;15.242;2023-03-26T00:55:19;99361.40;;;19.92;40.46
70555;BME280;58104;52.744;15.242;2023-03-26T00:57:45;99372.98;;;19.85;40.54
70555;BME280;58104;52.744;15.242;2023-03-26T01:00:14;99357.26;;;19.88;40.27
70555;BME280;58104;52.744;15.242;2023-03-26T01:02:36;99357.62;;;19.91;40.39
70555;BME280;58104;52.744;15.242;2023-03-26T01:07:28;99360.26;;;19.88;40.24
70555;BME280;58104;52.744;15.242;2023-03-26T01:09:53;99358.95;;;19.79;40.54
70555;BME280;58104;52.744;15.242;2023-03-26T01:12:20;99360.89;;;19.74;40.72
70555;BME280;58104;52.744;15.242;2023-03-26T01:14:44;99366.13;;;19.70;40.81
70555;BME280;58104;52.744;15.242;2023-03-26T01:17:09;99375.15;;;19.64;40.94
70555;BME280;58104;52.744;15.242;2023-03-26T01:19:38;99377.02;;;19.65;40.96
70555;BME280;58104;52.744;15.242;2023-03-26T01:21:59;99368.76;;;19.54;41.20
70555;BME280;58104;52.744;15.242;2023-03-26T01:24:25;99370.40;;;19.58;41.05
70555;BME280;58104;52.744;15.242;2023-03-26T01:27:03;99378.64;;;19.48;41.37
70555;BME280;58104;52.744;15.242;2023-03-26T01:29:20;99370.87;;;19.57;41.29
70555;BME280;58104;52.744;15.242;2023-03-26T01:31:48;99378.61;;;19.67;41.00
70555;BME280;58104;52.744;15.242;2023-03-26T01:34:11;99383.80;;;19.69;40.98
70555;BME280;58104;52.744;15.242;2023-03-26T01:36:40;99373.76;;;19.60;41.00
70555;BME280;58104;52.744;15.242;2023-03-26T01:39:02;99379.19;;;19.42;41.38
70555;BME280;58104;52.744;15.242;2023-03-26T01:41:28;99379.35;;;19.74;40.91
70555;BME280;58104;52.744;15.242;2023-03-26T01:43:52;99377.68;;;19.72;41.21
70555;BME280;58104;52.744;15.242;2023-03-26T01:46:15;99377.50;;;19.71;40.90
70555;BME280;58104;52.744;15.242;2023-03-26T01:48:41;99377.26;;;19.73;40.96
70555;BME280;58104;52.744;15.242;2023-03-26T01:51:05;99374.79;;;19.87;40.80
70555;BME280;58104;52.744;15.242;2023-03-26T01:53:30;99374.01;;;19.91;40.71
70555;BME280;58104;52.744;15.242;2023-03-26T01:56:04;99363.41;;;19.85;40.75
70555;BME280;58104;52.744;15.242;2023-03-26T01:58:29;99362.33;;;19.81;40.83
70555;BME280;58104;52.744;15.242;2023-03-26T02:00:51;99372.49;;;19.58;41.45
70555;BME280;58104;52.744;15.242;2023-03-26T02:03:19;99374.98;;;19.76;41.46
70555;BME280;58104;52.744;15.242;2023-03-26T02:05:43;99364.77;;;19.97;41.10
70555;BME280;58104;52.744;15.242;2023-03-26T02:08:09;99364.27;;;19.79;41.29
70555;BME280;58104;52.744;15.242;2023-03-26T02:10:31;99374.49;;;19.93;41.11
70555;BME280;58104;52.744;15.242;2023-03-26T02:12:53;99371.21;;;19.91;41.09
70555;BME280;58104;52.744;15.242;2023-03-26T02:15:19;99359.51;;;19.91;41.31
70555;BME280;58104;52.744;15.242;2023-03-26T02:17:45;99361.48;;;19.92;41.24
70555;BME280;58104;52.744;15.242;2023-03-26T02:20:12;99367.25;;;19.95;41.28
70555;BME280;58104;52.744;15.242;2023-03-26T02:22:36;99372.35;;;19.82;41.36
70555;BME280;58104;52.744;15.242;2023-03-26T02:25:00;99364.91;;;19.92;41.34
70555;BME280;58104;52.744;15.242;2023-03-26T02:27:26;99371.01;;;19.91;41.18
70555;BME280;58104;52.744;15.242;2023-03-26T02:29:51;99381.79;;;19.78;41.34
70555;BME280;58104;52.744;15.242;2023-03-26T02:32:17;99390.62;;;19.73;41.54
70555;BME280;58104;52.744;15.242;2023-03-26T02:34:42;99385.69;;;19.86;41.07
70555;BME280;58104;52.744;15.242;2023-03-26T02:37:08;99381.76;;;19.77;41.46
70555;BME280;58104;52.744;15.242;2023-03-26T02:39:33;99370.37;;;19.87;41.49
70555;BME280;58104;52.744;15.242;2023-03-26T02:41:59;99369.39;;;19.85;41.53
70555;BME280;58104;52.744;15.242;2023-03-26T02:44:24;99370.24;;;19.80;41.69
70555;BME280;58104;52.744;15.242;2023-03-26T02:46:49;99380.22;;;19.82;41.53
70555;BME280;58104;52.744;15.242;2023-03-26T02:49:15;99381.72;;;19.81;41.59
70555;BME280;58104;52.744;15.242;2023-03-26T02:51:40;99390.81;;;19.76;41.74
70555;BME280;58104;52.744;15.242;2023-03-26T02:54:05;99390.41;;;19.66;42.00
70555;BME280;58104;52.744;15.242;2023-03-26T02:56:31;99381.79;;;19.81;41.62
70555;BME280;58104;52.744;15.242;2023-03-26T02:58:56;99386.72;;;19.82;41.71
70555;BME280;58104;52.744;15.242;2023-03-26T03:01:22;99386.35;;;19.99;41.70
70555;BME280;58104;52.744;15.242;2023-03-26T03:03:47;99393.35;;;19.96;41.55
70555;BME280;58104;52.744;15.242;2023-03-26T03:06:13;99385.82;;;19.90;41.54
70555;BME280;58104;52.744;15.242;2023-03-26T03:08:38;99380.91;;;20.07;41.46
70555;BME280;58104;52.744;15.242;2023-03-26T03:11:09;99383.95;;;20.08;41.37
70555;BME280;58104;52.744;15.242;2023-03-26T03:13:29;99388.33;;;19.99;41.44
70555;BME280;58104;52.744;15.242;2023-03-26T03:15:55;99387.70;;;20.05;41.30
70555;BME280;58104;52.744;15.242;2023-03-26T03:18:19;99385.36;;;20.07;41.23
70555;BME280;58104;52.744;15.242;2023-03-26T03:20:45;99394.04;;;20.14;41.15
70555;BME280;58104;52.744;15.242;2023-03-26T03:23:11;99387.09;;;20.01;41.29
70555;BME280;58104;52.744;15.242;2023-03-26T03:25:36;99393.45;;;20.03;41.21
70555;BME280;58104;52.744;15.242;2023-03-26T03:28:01;99392.89;;;20.21;41.09
70555;BME280;58104;52.744;15.242;2023-03-26T03:30:27;99392.12;;;20.09;41.16
70555;BME280;58104;52.744;15.242;2023-03-26T03:32:52;99397.68;;;19.96;41.48
70555;BME280;58104;52.744;15.242;2023-03-26T03:35:17;99394.95;;;19.65;42.20
70555;BME280;58104;52.744;15.242;2023-03-26T03:37:43;99401.58;;;19.51;42.62
70555;BME280;58104;52.744;15.242;2023-03-26T03:40:09;99398.98;;;19.56;42.59
70555;BME280;58104;52.744;15.242;2023-03-26T03:42:33;99402.62;;;19.67;42.39
70555;BME280;58104;52.744;15.242;2023-03-26T03:44:59;99406.66;;;19.71;42.38
70555;BME280;58104;52.744;15.242;2023-03-26T03:47:24;99408.65;;;19.64;42.49
70555;BME280;58104;52.744;15.242;2023-03-26T03:49:50;99404.28;;;19.64;42.68
70555;BME280;58104;52.744;15.242;2023-03-26T03:52:15;99410.56;;;19.56;42.70
70555;BME280;58104;52.744;15.242;2023-03-26T03:54:41;99412.64;;;19.81;42.56
70555;BME280;58104;52.744;15.242;2023-03-26T03:57:06;99412.87;;;20.02;42.04
70555;BME280;58104;52.744;15.242;2023-03-26T03:59:31;99416.49;;;20.13;41.71
70555;BME280;58104;52.744;15.242;2023-03-26T04:01:57;99422.30;;;20.16;41.64
70555;BME280;58104;52.744;15.242;2023-03-26T04:04:22;99417.48;;;20.17;41.38
70555;BME280;58104;52.744;15.242;2023-03-26T04:06:48;99413.12;;;20.11;41.47
70555;BME280;58104;52.744;15.242;2023-03-26T04:09:13;99415.88;;;19.98;41.87
70555;BME280;58104;52.744;15.242;2023-03-26T04:11:39;99420.17;;;19.89;42.14
70555;BME280;58104;52.744;15.242;2023-03-26T04:14:04;99425.03;;;19.89;42.16
70555;BME280;58104;52.744;15.242;2023-03-26T04:16:29;99423.42;;;19.95;42.03
70555;BME280;58104;52.744;15.242;2023-03-26T04:18:55;99428.33;;;19.99;41.92
70555;BME280;58104;52.744;15.242;2023-03-26T04:21:20;99432.96;;;20.05;41.86
70555;BME280;58104;52.744;15.242;2023-03-26T04:23:46;99431.14;;;19.97;42.21
70555;BME280;58104;52.744;15.242;2023-03-26T04:26:15;99436.25;;;19.96;42.21
70555;BME280;58104;52.744;15.242;2023-03-26T04:28:43;99434.42;;;19.91;42.28
70555;BME280;58104;52.744;15.242;2023-03-26T04:31:02;99435.42;;;19.92;42.39
70555;BME280;58104;52.744;15.242;2023-03-26T04:33:28;99431.54;;;19.85;42.40
70555;BME280;58104;52.744;15.242;2023-03-26T04:35:53;99438.49;;;19.85;42.40
70555;BME280;58104;52.744;15.242;2023-03-26T04:38:19;99436.92;;;19.78;42.55
70555;BME280;58104;52.744;15.242;2023-03-26T04:40:44;99443.23;;;19.87;42.33
70555;BME280;58104;52.744;15.242;2023-03-26T04:43:12;99437.39;;;19.80;42.49
70555;BME280;58104;52.744;15.242;2023-03-26T04:45:34;99439.94;;;19.78;42.76
70555;BME280;58104;52.744;15.242;2023-03-26T04:48:00;99439.14;;;19.71;42.99
70555;BME280;58104;52.744;15.242;2023-03-26T04:50:25;99432.13;;;19.90;42.52
70555;BME280;58104;52.744;15.242;2023-03-26T04:52:53;99442.20;;;19.87;42.73
70555;BME280;58104;52.744;15.242;2023-03-26T04:55:22;99442.47;;;19.92;42.39
70555;BME280;58104;52.744;15.242;2023-03-26T04:57:43;99444.88;;;20.07;42.03
70555;BME280;58104;52.744;15.242;2023-03-26T05:00:08;99439.23;;;20.08;42.00
70555;BME280;58104;52.744;15.242;2023-03-26T05:02:32;99439.00;;;20.01;42.09
70555;BME280;58104;52.744;15.242;2023-03-26T05:04:58;99436.61;;;19.97;42.03
70555;BME280;58104;52.744;15.242;2023-03-26T05:07:23;99441.57;;;20.00;42.12
70555;BME280;58104;52.744;15.242;2023-03-26T05:09:49;99446.21;;;20.03;41.95
70555;BME280;58104;52.744;15.242;2023-03-26T05:12:14;99442.87;;;19.86;42.18
70555;BME280;58104;52.744;15.242;2023-03-26T05:14:39;99451.45;;;19.95;42.23
70555;BME280;58104;52.744;15.242;2023-03-26T05:17:05;99449.76;;;20.02;42.10
70555;BME280;58104;52.744;15.242;2023-03-26T05:19:30;99457.77;;;20.00;41.89
70555;BME280;58104;52.744;15.242;2023-03-26T05:21:55;99447.82;;;19.93;42.08
70555;BME280;58104;52.744;15.242;2023-03-26T05:24:21;99454.93;;;19.97;41.99
70555;BME280;58104;52.744;15.242;2023-03-26T05:26:46;99457.78;;;19.90;42.17
70555;BME280;58104;52.744;15.242;2023-03-26T05:29:12;99461.50;;;19.94;42.09
70555;BME280;58104;52.744;15.242;2023-03-26T05:31:37;99461.01;;;19.96;42.05
70555;BME280;58104;52.744;15.242;2023-03-26T05:34:02;99463.54;;;19.97;42.03
70555;BME280;58104;52.744;15.242;2023-03-26T05:36:28;99469.30;;;20.00;42.31
70555;BME280;58104;52.744;15.242;2023-03-26T05:38:53;99464.99;;;19.96;42.64
70555;BME280;58104;52.744;15.242;2023-03-26T05:41:19;99461.74;;;19.88;42.64
70555;BME280;58104;52.744;15.242;2023-03-26T05:43:44;99466.59;;;19.97;42.56
70555;BME280;58104;52.744;15.242;2023-03-26T05:46:10;99462.57;;;19.88;42.74
70555;BME280;58104;52.744;15.242;2023-03-26T05:48:35;99463.94;;;19.93;42.81
70555;BME280;58104;52.744;15.242;2023-03-26T05:51:00;99457.89;;;20.04;42.53
70555;BME280;58104;52.744;15.242;2023-03-26T05:53:26;99460.51;;;20.18;42.34
70555;BME280;58104;52.744;15.242;2023-03-26T05:55:52;99464.62;;;20.04;42.89
70555;BME280;58104;52.744;15.242;2023-03-26T05:58:17;99463.50;;;20.10;42.97
70555;BME280;58104;52.744;15.242;2023-03-26T06:00:42;99464.12;;;20.06;42.53
70555;BME280;58104;52.744;15.242;2023-03-26T06:03:08;99453.11;;;20.02;41.94
70555;BME280;58104;52.744;15.242;2023-03-26T06:05:34;99460.73;;;19.80;42.98
70555;BME280;58104;52.744;15.242;2023-03-26T06:07:58;99456.28;;;19.77;43.02
70555;BME280;58104;52.744;15.242;2023-03-26T06:10:24;99462.76;;;19.86;42.82
70555;BME280;58104;52.744;15.242;2023-03-26T06:12:49;99463.51;;;19.97;42.72
70555;BME280;58104;52.744;15.242;2023-03-26T06:15:15;99457.55;;;20.12;42.52
70555;BME280;58104;52.744;15.242;2023-03-26T06:17:40;99471.72;;;20.13;42.42
70555;BME280;58104;52.744;15.242;2023-03-26T06:20:07;99467.82;;;20.34;42.07
70555;BME280;58104;52.744;15.242;2023-03-26T06:22:31;99477.77;;;20.28;42.04
70555;BME280;58104;52.744;15.242;2023-03-26T06:24:56;99481.49;;;20.43;41.65
70555;BME280;58104;52.744;15.242;2023-03-26T06:27:22;99474.97;;;20.41;41.82
70555;BME280;58104;52.744;15.242;2023-03-26T06:29:47;99481.64;;;20.21;42.05
70555;BME280;58104;52.744;15.242;2023-03-26T06:32:13;99481.26;;;20.32;41.88
70555;BME280;58104;52.744;15.242;2023-03-26T06:34:38;99482.73;;;20.37;41.89
70555;BME280;58104;52.744;15.242;2023-03-26T06:37:03;99491.99;;;20.21;42.18
70555;BME280;58104;52.744;15.242;2023-03-26T06:39:29;99488.34;;;20.33;41.96
70555;BME280;58104;52.744;15.242;2023-03-26T06:41:54;99493.98;;;20.35;41.92
70555;BME280;58104;52.744;15.242;2023-03-26T06:44:20;99489.09;;;20.48;41.76
70555;BME280;58104;52.744;15.242;2023-03-26T06:46:45;99497.98;;;20.47;41.77
70555;BME280;58104;52.744;15.242;2023-03-26T06:49:11;99499.69;;;20.55;41.59
70555;BME280;58104;52.744;15.242;2023-03-26T06:51:36;99496.62;;;20.59;41.55
70555;BME280;58104;52.744;15.242;2023-03-26T06:54:01;99493.45;;;20.57;41.40
70555;BME280;58104;52.744;15.242;2023-03-26T06:56:27;99494.21;;;20.55;41.53
70555;BME280;58104;52.744;15.242;2023-03-26T06:58:52;99498.46;;;20.39;41.87
70555;BME280;58104;52.744;15.242;2023-03-26T07:01:18;99495.10;;;20.34;41.97
70555;BME280;58104;52.744;15.242;2023-03-26T07:03:43;99498.36;;;20.31;41.96
70555;BME280;58104;52.744;15.242;2023-03-26T07:06:09;99491.71;;;20.36;41.75
70555;BME280;58104;52.744;15.242;2023-03-26T07:08:34;99497.60;;;20.47;41.55
70555;BME280;58104;52.744;15.242;2023-03-26T07:10:59;99496.85;;;20.73;41.26
70555;BME280;58104;52.744;15.242;2023-03-26T07:13:25;99495.83;;;20.56;41.74
70555;BME280;58104;52.744;15.242;2023-03-26T07:15:50;99505.74;;;20.61;41.79
70555;BME280;58104;52.744;15.242;2023-03-26T07:18:15;99504.48;;;20.61;41.75
70555;BME280;58104;52.744;15.242;2023-03-26T07:20:43;99498.46;;;20.68;41.87
70555;BME280;58104;52.744;15.242;2023-03-26T07:23:08;99494.87;;;20.52;42.71
70555;BME280;58104;52.744;15.242;2023-03-26T07:25:32;99505.10;;;19.77;40.66
70555;BME280;58104;52.744;15.242;2023-03-26T07:28:05;99496.91;;;19.74;39.63
70555;BME280;58104;52.744;15.242;2023-03-26T07:30:27;99508.70;;;19.47;40.27
70555;BME280;58104;52.744;15.242;2023-03-26T07:32:54;99506.05;;;18.20;40.11
70555;BME280;58104;52.744;15.242;2023-03-26T07:35:20;99498.56;;;17.32;40.73
70555;BME280;58104;52.744;15.242;2023-03-26T07:37:46;99512.05;;;17.51;42.06
70555;BME280;58104;52.744;15.242;2023-03-26T07:40:11;99507.19;;;16.95;42.38
70555;BME280;58104;52.744;15.242;2023-03-26T07:42:40;99501.94;;;17.02;41.84
70555;BME280;58104;52.744;15.242;2023-03-26T07:45:00;99512.29;;;17.27;43.07
70555;BME280;58104;52.744;15.242;2023-03-26T07:47:24;99515.96;;;17.83;41.79
70555;BME280;58104;52.744;15.242;2023-03-26T07:49:47;99512.62;;;17.97;40.63
70555;BME280;58104;52.744;15.242;2023-03-26T07:52:12;99505.60;;;17.92;39.31
70555;BME280;58104;52.744;15.242;2023-03-26T07:54:37;99502.73;;;17.24;40.57
70555;BME280;58104;52.744;15.242;2023-03-26T07:57:05;99503.47;;;17.75;40.05
70555;BME280;58104;52.744;15.242;2023-03-26T07:59:30;99500.29;;;17.83;39.44
70555;BME280;58104;52.744;15.242;2023-03-26T08:02:11;99505.48;;;17.57;39.19
70555;BME280;58104;52.744;15.242;2023-03-26T08:06:49;99500.78;;;18.12;39.24
70555;BME280;58104;52.744;15.242;2023-03-26T08:09:14;99503.53;;;17.77;39.29
70555;BME280;58104;52.744;15.242;2023-03-26T08:11:43;99490.15;;;18.54;38.74
70555;BME280;58104;52.744;15.242;2023-03-26T08:14:07;99494.78;;;18.55;38.15
70555;BME280;58104;52.744;15.242;2023-03-26T08:16:32;99501.83;;;18.86;37.25
70555;BME280;58104;52.744;15.242;2023-03-26T08:18:56;99492.86;;;19.22;36.80
70555;BME280;58104;52.744;15.242;2023-03-26T08:21:22;99502.53;;;19.49;36.11
70555;BME280;58104;52.744;15.242;2023-03-26T08:23:52;99490.57;;;19.77;35.49
70555;BME280;58104;52.744;15.242;2023-03-26T08:26:12;99488.74;;;19.89;35.16
70555;BME280;58104;52.744;15.242;2023-03-26T08:28:44;99492.88;;;19.86;35.07
70555;BME280;58104;52.744;15.242;2023-03-26T08:30:58;99497.82;;;19.95;35.01
70555;BME280;58104;52.744;15.242;2023-03-26T08:33:26;99495.32;;;19.97;34.81
70555;BME280;58104;52.744;15.242;2023-03-26T08:35:49;99501.71;;;20.15;34.33
70555;BME280;58104;52.744;15.242;2023-03-26T08:38:16;99501.82;;;19.94;34.71
70555;BME280;58104;52.744;15.242;2023-03-26T08:40:58;99499.81;;;20.03;34.37
70555;BME280;58104;52.744;15.242;2023-03-26T08:43:18;99499.06;;;19.90;34.73
70555;BME280;58104;52.744;15.242;2023-03-26T08:45:39;99494.99;;;19.84;34.56
70555;BME280;58104;52.744;15.242;2023-03-26T08:55:23;99497.93;;;19.92;34.50
70555;BME280;58104;52.744;15.242;2023-03-26T09:02:42;99508.48;;;20.04;33.94
70555;BME280;58104;52.744;15.242;2023-03-26T09:07:32;99501.37;;;20.00;33.64
70555;BME280;58104;52.744;15.242;2023-03-26T09:09:58;99499.74;;;19.93;34.88
70555;BME280;58104;52.744;15.242;2023-03-26T09:17:16;99491.00;;;19.81;33.47
70555;BME280;58104;52.744;15.242;2023-03-26T09:19:36;99504.54;;;19.80;33.20
70555;BME280;58104;52.744;15.242;2023-03-26T09:26:45;99489.74;;;19.77;33.60
70555;BME280;58104;52.744;15.242;2023-03-26T09:36:36;99495.65;;;19.81;33.27
70555;BME280;58104;52.744;15.242;2023-03-26T09:38:52;99487.39;;;19.44;33.63
70555;BME280;58104;52.744;15.242;2023-03-26T09:41:17;99489.39;;;19.38;34.03
70555;BME280;58104;52.744;15.242;2023-03-26T09:46:15;99489.66;;;19.55;33.32
70555;BME280;58104;52.744;15.242;2023-03-26T09:51:08;99494.41;;;19.40;33.36
70555;BME280;58104;52.744;15.242;2023-03-26T09:55:59;99500.79;;;19.41;33.51
70555;BME280;58104;52.744;15.242;2023-03-26T09:58:24;99502.07;;;19.21;33.19
70555;BME280;58104;52.744;15.242;2023-03-26T10:00:46;99496.82;;;19.32;33.56
70555;BME280;58104;52.744;15.242;2023-03-26T10:03:20;99496.51;;;19.25;33.49
70555;BME280;58104;52.744;15.242;2023-03-26T10:05:40;99494.25;;;19.33;33.71
70555;BME280;58104;52.744;15.242;2023-03-26T10:08:05;99482.53;;;19.17;33.43
70555;BME280;58104;52.744;15.242;2023-03-26T10:10:28;99481.26;;;19.37;33.70
70555;BME280;58104;52.744;15.242;2023-03-26T10:12:51;99485.04;;;19.47;33.23
70555;BME280;58104;52.744;15.242;2023-03-26T10:15:21;99492.45;;;19.59;32.71
70555;BME280;58104;52.744;15.242;2023-03-26T10:17:50;99503.08;;;19.04;32.85
70555;BME280;58104;52.744;15.242;2023-03-26T10:20:18;99493.56;;;19.06;32.98
70555;BME280;58104;52.744;15.242;2023-03-26T10:22:41;99498.94;;;19.10;32.85
70555;BME280;58104;52.744;15.242;2023-03-26T10:25:09;99500.50;;;19.20;32.92
70555;BME280;58104;52.744;15.242;2023-03-26T10:27:29;99505.43;;;19.06;32.65
70555;BME280;58104;52.744;15.242;2023-03-26T10:29:59;99502.41;;;19.15;32.64
70555;BME280;58104;52.744;15.242;2023-03-26T10:32:16;99495.51;;;19.24;32.69
70555;BME280;58104;52.744;15.242;2023-03-26T10:34:45;99506.11;;;19.21;32.54
70555;BME280;58104;52.744;15.242;2023-03-26T10:37:08;99504.29;;;19.23;32.91
70555;BME280;58104;52.744;15.242;2023-03-26T10:41:59;99496.60;;;19.31;32.27
70555;BME280;58104;52.744;15.242;2023-03-26T10:46:55;99492.66;;;19.31;32.28
70555;BME280;58104;52.744;15.242;2023-03-26T10:51:43;99509.95;;;19.57;31.85
70555;BME280;58104;52.744;15.242;2023-03-26T10:54:05;99492.32;;;19.26;32.11
70555;BME280;58104;52.744;15.242;2023-03-26T10:56:27;99496.25;;;19.50;31.78
70555;BME280;58104;52.744;15.242;2023-03-26T10:58:49;99491.65;;;19.33;31.95
70555;BME280;58104;52.744;15.242;2023-03-26T11:01:22;99496.60;;;19.40;31.77
70555;BME280;58104;52.744;15.242;2023-03-26T11:03:45;99505.95;;;19.45;32.19
70555;BME280;58104;52.744;15.242;2023-03-26T11:06:15;99501.21;;;19.54;31.68
70555;BME280;58104;52.744;15.242;2023-03-26T11:08:37;99501.13;;;19.27;32.39
70555;BME280;58104;52.744;15.242;2023-03-26T11:11:02;99509.25;;;19.10;32.32
70555;BME280;58104;52.744;15.242;2023-03-26T11:13:30;99511.76;;;19.08;32.50
70555;BME280;58104;52.744;15.242;2023-03-26T11:15:54;99521.32;;;19.21;32.52
70555;BME280;58104;52.744;15.242;2023-03-26T11:18:17;99510.87;;;19.10;32.66
70555;BME280;58104;52.744;15.242;2023-03-26T11:20:43;99513.35;;;18.96;32.67
70555;BME280;58104;52.744;15.242;2023-03-26T11:25:43;99508.41;;;18.87;34.00
70555;BME280;58104;52.744;15.242;2023-03-26T11:28:06;99516.29;;;19.00;33.74
70555;BME280;58104;52.744;15.242;2023-03-26T11:30:27;99507.50;;;19.36;32.40
70555;BME280;58104;52.744;15.242;2023-03-26T11:32:50;99509.65;;;19.65;31.76
70555;BME280;58104;52.744;15.242;2023-03-26T11:35:20;99504.19;;;19.45;31.99
70555;BME280;58104;52.744;15.242;2023-03-26T11:37:40;99509.04;;;19.81;31.69
70555;BME280;58104;52.744;15.242;2023-03-26T11:40:05;99497.43;;;19.63;31.70
70555;BME280;58104;52.744;15.242;2023-03-26T11:42:27;99511.28;;;19.70;31.40
70555;BME280;58104;52.744;15.242;2023-03-26T11:44:54;99511.35;;;19.82;31.51
70555;BME280;58104;52.744;15.242;2023-03-26T11:47:20;99512.89;;;18.98;32.06
70555;BME280;58104;52.744;15.242;2023-03-26T11:49:44;99499.10;;;19.51;31.33
70555;BME280;58104;52.744;15.242;2023-03-26T11:52:10;99505.74;;;19.31;31.61
70555;BME280;58104;52.744;15.242;2023-03-26T11:54:34;99503.54;;;19.34;31.41
70555;BME280;58104;52.744;15.242;2023-03-26T11:57:01;99514.65;;;18.73;32.08
70555;BME280;58104;52.744;15.242;2023-03-26T11:59:28;99509.21;;;19.50;31.58
70555;BME280;58104;52.744;15.242;2023-03-26T12:01:54;99503.65;;;19.53;31.17
70555;BME280;58104;52.744;15.242;2023-03-26T12:04:18;99498.80;;;19.36;31.19
70555;BME280;58104;52.744;15.242;2023-03-26T12:06:49;99501.19;;;19.12;31.63
70555;BME280;58104;52.744;15.242;2023-03-26T12:09:15;99500.01;;;19.42;31.40
70555;BME280;58104;52.744;15.242;2023-03-26T12:11:32;99492.50;;;19.55;31.16
70555;BME280;58104;52.744;15.242;2023-03-26T12:14:00;99483.23;;;19.37;31.46
70555;BME280;58104;52.744;15.242;2023-03-26T12:16:23;99489.85;;;19.59;31.03
70555;BME280;58104;52.744;15.242;2023-03-26T12:18:57;99490.31;;;19.51;32.08
70555;BME280;58104;52.744;15.242;2023-03-26T12:21:15;99495.89;;;19.41;31.74
70555;BME280;58104;52.744;15.242;2023-03-26T12:26:12;99494.02;;;19.45;31.63
70555;BME280;58104;52.744;15.242;2023-03-26T12:28:30;99497.08;;;19.22;32.14
70555;BME280;58104;52.744;15.242;2023-03-26T12:30:59;99488.51;;;18.98;33.11
70555;BME280;58104;52.744;15.242;2023-03-26T12:33:25;99486.67;;;19.15;32.66
70555;BME280;58104;52.744;15.242;2023-03-26T12:35:46;99489.04;;;18.77;32.84
70555;BME280;58104;52.744;15.242;2023-03-26T12:38:15;99486.91;;;19.05;32.79
70555;BME280;58104;52.744;15.242;2023-03-26T12:40:37;99480.04;;;19.21;32.90
70555;BME280;58104;52.744;15.242;2023-03-26T12:43:04;99481.85;;;18.98;33.05
70555;BME280;58104;52.744;15.242;2023-03-26T12:45:30;99490.19;;;19.23;32.71
70555;BME280;58104;52.744;15.242;2023-03-26T12:47:53;99487.51;;;18.86;33.55
70555;BME280;58104;52.744;15.242;2023-03-26T12:50:23;99495.12;;;18.39;34.14
70555;BME280;58104;52.744;15.242;2023-03-26T12:52:56;99489.47;;;18.73;34.32
70555;BME280;58104;52.744;15.242;2023-03-26T12:55:20;99489.43;;;19.26;33.97
70555;BME280;58104;52.744;15.242;2023-03-26T12:57:36;99481.86;;;19.29;33.78
70555;BME280;58104;52.744;15.242;2023-03-26T13:05:01;99471.85;;;19.60;33.68
70555;BME280;58104;52.744;15.242;2023-03-26T13:07:22;99465.76;;;19.86;33.20
70555;BME280;58104;52.744;15.242;2023-03-26T13:12:17;99459.08;;;19.93;33.11
70555;BME280;58104;52.744;15.242;2023-03-26T13:14:41;99457.65;;;19.42;34.29
70555;BME280;58104;52.744;15.242;2023-03-26T13:17:03;99444.74;;;19.61;33.91
70555;BME280;58104;52.744;15.242;2023-03-26T13:19:29;99448.58;;;19.70;34.11
70555;BME280;58104;52.744;15.242;2023-03-26T13:22:00;99452.22;;;19.90;33.73
70555;BME280;58104;52.744;15.242;2023-03-26T13:24:23;99457.04;;;19.62;34.08
70555;BME280;58104;52.744;15.242;2023-03-26T13:26:51;99458.08;;;19.50;34.37
70555;BME280;58104;52.744;15.242;2023-03-26T13:29:11;99453.03;;;19.26;35.20
70555;BME280;58104;52.744;15.242;2023-03-26T13:31:34;99441.80;;;19.09;35.43
70555;BME280;58104;52.744;15.242;2023-03-26T13:34:03;99437.22;;;18.91;35.43
70555;BME280;58104;52.744;15.242;2023-03-26T13:36:30;99432.36;;;18.88;35.40
70555;BME280;58104;52.744;15.242;2023-03-26T13:38:57;99435.85;;;18.71;35.17
70555;BME280;58104;52.744;15.242;2023-03-26T13:41:19;99432.72;;;18.64;34.93
70555;BME280;58104;52.744;15.242;2023-03-26T13:43:50;99431.42;;;18.59;34.51